Time;durP1;ratioP1;P1;durP2;ratioP2;P2;SDS_P1;SDS_P2;PMS_P1;PMS_P2;Temp;Humidity;BMP_temperature;BMP_pressure;BME280_temperature;BME280_humidity;BME280_pressure;Samples;Min_cycle;Max_cycle;Signal;HPM_P1;HPM_P2
2024/03/08 00:00:45;;;;;;;78.60;33.80;;;;;;;2.68;43.97;100871.98;108108;1254;59695;-67
2024/03/08 00:03:12;;;;;;;84.80;34.40;;;;;;;2.64;44.09;100870.55;108088;1254;60168;-66
2024/03/08 00:05:39;;;;;;;79.50;34.90;;;;;;;2.70;44.02;100870.43;108072;1254;73286;-67
2024/03/08 00:08:09;;;;;;;98.10;40.70;;;;;;;2.73;43.87;100867.15;108216;1254;70424;-67
2024/03/08 00:10:36;;;;;;;102.30;39.10;;;;;;;2.73;43.91;100864.55;108123;1256;73055;-66
2024/03/08 00:13:04;;;;;;;103.90;40.80;;;;;;;2.69;43.99;100865.73;108197;1253;59624;-66
2024/03/08 00:15:32;;;;;;;102.60;40.20;;;;;;;2.51;44.24;100864.73;108103;1254;59406;-66
2024/03/08 00:17:58;;;;;;;110.40;40.10;;;;;;;2.47;44.47;100863.15;108099;1253;72874;-66
2024/03/08 00:20:25;;;;;;;113.70;45.80;;;;;;;2.35;44.53;100856.98;108221;1253;68893;-67
2024/03/08 00:22:53;;;;;;;118.00;44.20;;;;;;;2.30;44.61;100856.77;108135;1253;72555;-67
2024/03/08 00:25:19;;;;;;;130.10;47.50;;;;;;;2.26;44.71;100852.41;108096;1254;61812;-66
2024/03/08 00:27:49;;;;;;;125.80;48.10;;;;;;;2.29;44.73;100849.14;108109;1253;60405;-66
2024/03/08 00:30:16;;;;;;;127.10;46.70;;;;;;;2.35;44.52;100845.20;108122;1254;73422;-66
2024/03/08 00:32:42;;;;;;;113.40;43.20;;;;;;;2.40;44.44;100844.90;108102;1253;70742;-67
2024/03/08 00:35:09;;;;;;;120.10;45.90;;;;;;;2.39;44.36;100845.05;108139;1253;72507;-66
2024/03/08 00:37:36;;;;;;;114.60;43.80;;;;;;;2.51;44.17;100839.42;108059;1253;61819;-66
2024/03/08 00:40:04;;;;;;;124.80;47.00;;;;;;;2.47;44.20;100837.33;108475;1253;60087;-67
2024/03/08 00:42:31;;;;;;;118.40;45.90;;;;;;;2.42;44.27;100834.17;108204;1254;73097;-66
2024/03/08 00:44:57;;;;;;;97.10;38.60;;;;;;;2.34;44.41;100833.41;108037;1253;70734;-66
2024/03/08 00:47:24;;;;;;;107.80;44.40;;;;;;;2.30;44.54;100830.96;108147;1253;72767;-67
2024/03/08 00:49:52;;;;;;;88.90;36.00;;;;;;;2.32;44.57;100834.61;108105;1253;61958;-64
2024/03/08 00:52:19;;;;;;;104.40;42.50;;;;;;;2.29;44.72;100830.95;108066;1253;59472;-65
2024/03/08 00:54:46;;;;;;;103.70;43.50;;;;;;;2.33;44.57;100828.03;108055;1253;73556;-67
2024/03/08 00:57:13;;;;;;;103.60;38.10;;;;;;;2.32;44.58;100826.81;108131;1257;70149;-67
2024/03/08 00:59:39;;;;;;;115.30;41.40;;;;;;;2.23;44.68;100828.30;108207;1253;71484;-67
2024/03/08 01:02:06;;;;;;;98.80;38.50;;;;;;;2.17;44.77;100825.65;108084;1253;61862;-66
2024/03/08 01:04:33;;;;;;;95.10;39.20;;;;;;;2.13;44.81;100825.27;108138;1253;60115;-65
2024/03/08 01:07:00;;;;;;;98.70;41.20;;;;;;;2.06;45.02;100824.69;108120;1253;73704;-65
2024/03/08 01:09:27;;;;;;;89.50;37.90;;;;;;;1.99;45.29;100823.77;108056;1254;70199;-64
2024/03/08 01:11:54;;;;;;;106.80;42.00;;;;;;;1.96;45.26;100824.26;108168;1253;72823;-66
2024/03/08 01:14:22;;;;;;;114.70;44.40;;;;;;;1.85;45.40;100825.54;108132;1253;61786;-66
2024/03/08 01:16:49;;;;;;;98.20;37.20;;;;;;;1.84;45.68;100818.44;108166;1257;60342;-67
2024/03/08 01:19:16;;;;;;;109.40;44.80;;;;;;;1.87;45.56;100817.25;108082;1253;72910;-66
2024/03/08 01:21:42;;;;;;;101.60;39.30;;;;;;;1.95;45.44;100818.19;108071;1253;70103;-67
2024/03/08 01:24:09;;;;;;;129.40;48.40;;;;;;;2.00;45.34;100811.47;108046;1253;72494;-64
2024/03/08 01:26:36;;;;;;;169.70;59.00;;;;;;;1.83;45.60;100812.52;108084;1253;61880;-65
2024/03/08 01:29:03;;;;;;;123.80;44.80;;;;;;;1.75;45.98;100812.63;108060;1253;60155;-66
2024/03/08 01:31:30;;;;;;;129.10;47.10;;;;;;;1.76;46.01;100811.77;108080;1253;73032;-66
2024/03/08 01:34:00;;;;;;;109.60;41.30;;;;;;;1.72;45.97;100812.27;108105;1253;70404;-66
2024/03/08 01:36:27;;;;;;;165.80;57.90;;;;;;;1.66;46.03;100812.02;108062;1254;72926;-66
2024/03/08 01:38:54;;;;;;;146.60;53.70;;;;;;;1.77;46.01;100812.13;108133;1253;60952;-66
2024/03/08 01:41:21;;;;;;;147.90;52.10;;;;;;;1.78;46.04;100808.33;108157;1253;60136;-66
2024/03/08 01:43:47;;;;;;;139.10;53.00;;;;;;;1.78;45.99;100809.02;108068;1256;73493;-66
2024/03/08 01:46:16;;;;;;;117.10;45.20;;;;;;;1.77;45.90;100803.99;108134;1253;69770;-66
2024/03/08 01:48:43;;;;;;;127.90;48.70;;;;;;;1.90;45.86;100799.09;108051;1253;71391;-66
2024/03/08 01:51:11;;;;;;;127.40;50.20;;;;;;;1.97;45.42;100799.33;108084;1253;60666;-66
2024/03/08 01:53:38;;;;;;;89.00;38.10;;;;;;;1.78;45.57;100798.46;108179;1253;59433;-66
2024/03/08 01:56:05;;;;;;;111.00;43.10;;;;;;;1.74;45.71;100798.25;108056;1253;73294;-66
2024/03/08 01:58:33;;;;;;;121.40;47.80;;;;;;;1.78;45.51;100796.38;108049;1253;70955;-66
2024/03/08 02:00:59;;;;;;;118.10;45.80;;;;;;;1.80;45.80;100792.77;108157;1254;72721;-66
2024/03/08 02:03:27;;;;;;;124.70;46.60;;;;;;;1.86;45.44;100792.66;108133;1253;61956;-66
2024/03/08 02:05:54;;;;;;;108.50;42.80;;;;;;;1.91;45.48;100788.18;108194;1257;59571;-66
2024/03/08 02:08:22;;;;;;;107.80;45.30;;;;;;;1.87;45.52;100790.23;108088;1253;71534;-67
2024/03/08 02:10:49;;;;;;;117.40;47.30;;;;;;;1.85;45.52;100790.21;108100;1253;70193;-65
2024/03/08 02:13:16;;;;;;;106.10;42.70;;;;;;;1.85;45.52;100792.98;108084;1254;73251;-66
2024/03/08 02:16:00;;;;;;;107.60;44.80;;;;;;;1.87;45.46;100788.67;108109;1253;60698;-66
2024/03/08 02:18:28;;;;;;;111.80;44.80;;;;;;;1.87;45.50;100786.60;108143;1253;60315;-67
2024/03/08 02:20:56;;;;;;;121.40;48.70;;;;;;;1.88;45.58;100790.08;108167;1253;74143;-66
2024/03/08 02:23:23;;;;;;;119.50;48.70;;;;;;;1.64;45.63;100788.46;108117;1253;68803;-67
2024/03/08 02:25:50;;;;;;;114.70;42.30;;;;;;;1.57;46.02;100785.44;108119;1253;72963;-66
2024/03/08 02:28:20;;;;;;;113.60;44.10;;;;;;;1.66;45.82;100784.14;108100;1253;60470;-66
2024/03/08 02:30:47;;;;;;;113.50;44.30;;;;;;;1.59;45.98;100783.90;108117;1253;60422;-67
2024/03/08 02:33:17;;;;;;;96.10;39.20;;;;;;;1.47;46.29;100778.94;108165;1253;72736;-66
2024/03/08 02:35:47;;;;;;;125.70;49.20;;;;;;;1.60;46.15;100778.20;108134;1253;71117;-67
2024/03/08 02:38:18;;;;;;;97.50;39.50;;;;;;;1.52;45.91;100773.63;108141;1253;72862;-66
2024/03/08 02:40:46;;;;;;;118.20;45.80;;;;;;;1.45;46.40;100772.33;108115;1253;61875;-66
2024/03/08 02:43:14;;;;;;;120.30;46.60;;;;;;;1.58;46.11;100771.60;108175;1253;60359;-66
2024/03/08 02:45:44;;;;;;;97.40;39.20;;;;;;;1.68;45.70;100765.81;107920;1253;73837;-66
2024/03/08 02:48:11;;;;;;;80.70;32.30;;;;;;;1.74;45.70;100765.17;108169;1253;71016;-67
2024/03/08 02:50:40;;;;;;;112.70;42.50;;;;;;;1.90;45.48;100765.15;108098;1253;72451;-66
2024/03/08 02:53:07;;;;;;;96.20;37.70;;;;;;;2.01;45.13;100764.54;108056;1253;60587;-67
2024/03/08 02:55:35;;;;;;;110.90;44.70;;;;;;;1.92;45.14;100759.98;108101;1253;60370;-66
2024/03/08 02:58:08;;;;;;;103.40;42.00;;;;;;;2.00;45.28;100758.98;108129;1256;73512;-66
2024/03/08 03:00:35;;;;;;;122.20;47.80;;;;;;;2.00;45.06;100757.96;108141;1253;70694;-66
2024/03/08 03:03:02;;;;;;;119.20;48.10;;;;;;;2.05;44.88;100751.59;108069;1253;73034;-66
2024/03/08 03:05:30;;;;;;;119.20;48.20;;;;;;;1.99;45.03;100753.09;108123;1253;62750;-66
2024/03/08 03:07:58;;;;;;;113.80;48.30;;;;;;;1.94;44.89;100754.61;108160;1253;60476;-67
2024/03/08 03:10:24;;;;;;;121.70;47.40;;;;;;;1.91;45.07;100752.33;108114;1253;73607;-67
2024/03/08 03:12:51;;;;;;;119.00;45.10;;;;;;;1.95;44.87;100754.98;108232;1253;70097;-67
2024/03/08 03:15:18;;;;;;;145.60;57.60;;;;;;;1.95;44.96;100756.36;108225;1256;73586;-66
2024/03/08 03:17:48;;;;;;;109.90;46.00;;;;;;;1.88;45.02;100750.93;108133;1256;60893;-66
2024/03/08 03:20:22;;;;;;;;;;;;;;;1.78;45.10;100748.78;108179;1253;60326;-66
2024/03/08 03:22:51;;;;;;;132.10;52.70;;;;;;;1.59;45.42;100742.36;108122;1253;74467;-66
2024/03/08 03:25:24;;;;;;;117.80;44.20;;;;;;;1.43;45.72;100740.14;108116;1253;70553;-66
2024/03/08 03:27:52;;;;;;;137.40;52.30;;;;;;;1.56;45.38;100741.31;108142;1253;73218;-66
2024/03/08 03:30:22;;;;;;;125.00;50.10;;;;;;;1.63;45.13;100739.82;108141;1256;60787;-66
2024/03/08 03:32:50;;;;;;;134.90;52.90;;;;;;;1.71;44.98;100740.05;108122;1253;60550;-66
2024/03/08 03:35:18;;;;;;;144.70;56.70;;;;;;;1.68;44.89;100738.13;108149;1253;71279;-66
2024/03/08 03:37:51;;;;;;;122.20;46.00;;;;;;;1.73;44.94;100740.42;108069;1253;70518;-67
2024/03/08 03:40:21;;;;;;;128.40;52.70;;;;;;;1.79;44.76;100738.91;108113;1253;71569;-66
2024/03/08 03:42:47;;;;;;;138.40;52.10;;;;;;;1.77;44.69;100739.77;108132;1253;61685;-64
2024/03/08 03:45:19;;;;;;;141.80;54.00;;;;;;;1.67;44.75;100736.05;108086;1254;60381;-67
2024/03/08 03:47:46;;;;;;;136.70;51.70;;;;;;;1.78;44.77;100734.91;108162;1253;73680;-66
2024/03/08 03:50:13;;;;;;;135.20;52.20;;;;;;;1.77;44.63;100734.39;108159;1257;70022;-67
2024/03/08 03:52:42;;;;;;;125.70;49.70;;;;;;;1.82;44.46;100733.75;108115;1253;73274;-66
2024/03/08 03:55:08;;;;;;;121.50;48.80;;;;;;;1.76;44.42;100731.79;108139;1253;61913;-66
2024/03/08 03:57:35;;;;;;;122.50;47.60;;;;;;;1.69;44.69;100728.79;108092;1253;60699;-67
2024/03/08 04:00:02;;;;;;;149.10;55.40;;;;;;;1.73;44.45;100731.77;108137;1253;73909;-67
2024/03/08 04:02:39;;;;;;;135.00;50.80;;;;;;;1.69;44.42;100733.98;108121;1253;69740;-66
2024/03/08 04:05:07;;;;;;;123.20;46.10;;;;;;;1.61;44.64;100731.65;108086;1253;72838;-66
2024/03/08 04:07:34;;;;;;;132.30;48.90;;;;;;;1.52;44.94;100732.43;108134;1257;62099;-66
2024/03/08 04:10:02;;;;;;;124.50;48.00;;;;;;;1.52;44.77;100730.71;108116;1256;60360;-66
2024/03/08 04:12:29;;;;;;;115.40;46.60;;;;;;;1.59;44.74;100726.61;108075;1253;72568;-66
2024/03/08 04:14:56;;;;;;;134.50;50.60;;;;;;;1.65;44.47;100727.02;108084;1253;69262;-66
2024/03/08 04:17:24;;;;;;;118.60;45.70;;;;;;;1.67;44.54;100721.66;108091;1253;73054;-66
2024/03/08 04:19:51;;;;;;;130.70;48.40;;;;;;;1.61;44.71;100719.89;108143;1253;61837;-66
2024/03/08 04:22:18;;;;;;;146.10;54.90;;;;;;;1.60;44.49;100724.04;108184;1253;60355;-66
2024/03/08 04:24:45;;;;;;;109.30;45.30;;;;;;;1.63;44.37;100721.61;108126;1253;73544;-66
2024/03/08 04:27:12;;;;;;;133.30;50.80;;;;;;;1.61;44.59;100719.54;108077;1253;70111;-66
2024/03/08 04:29:39;;;;;;;129.50;47.60;;;;;;;1.52;44.55;100716.85;108090;1253;72071;-66
2024/03/08 04:32:08;;;;;;;152.50;55.80;;;;;;;1.52;44.86;100713.91;108117;1253;61015;-66
2024/03/08 04:34:35;;;;;;;151.10;57.60;;;;;;;1.41;44.84;100712.95;108047;1254;60361;-66
2024/03/08 04:37:02;;;;;;;118.80;46.70;;;;;;;1.36;44.83;100712.39;108027;1254;74326;-66
2024/03/08 04:39:30;;;;;;;128.50;46.50;;;;;;;1.54;44.70;100712.20;108004;1257;70266;-66
2024/03/08 04:41:58;;;;;;;111.30;43.70;;;;;;;1.64;44.73;100714.89;108113;1256;73042;-67
2024/03/08 04:44:25;;;;;;;128.90;48.80;;;;;;;1.79;44.51;100713.64;108252;1253;60558;-66
2024/03/08 04:46:51;;;;;;;147.00;55.30;;;;;;;1.78;44.69;100716.40;108240;1253;60402;-67
2024/03/08 04:49:18;;;;;;;141.90;53.30;;;;;;;1.85;44.48;100714.55;108200;1254;72593;-66
2024/03/08 04:51:46;;;;;;;140.20;52.90;;;;;;;1.80;44.52;100710.69;108189;1253;70634;-66
2024/03/08 04:54:12;;;;;;;134.80;50.00;;;;;;;1.85;44.51;100713.85;108129;1253;72691;-66
2024/03/08 04:56:39;;;;;;;149.10;50.90;;;;;;;1.94;44.37;100709.77;108243;1253;61855;-67
2024/03/08 04:59:08;;;;;;;128.80;50.80;;;;;;;1.99;44.45;100708.06;108241;1256;60319;-67
2024/03/08 05:01:37;;;;;;;119.10;47.30;;;;;;;1.93;44.85;100708.70;108219;1254;73727;-67
2024/03/08 05:04:05;;;;;;;136.80;52.50;;;;;;;2.01;44.75;100703.93;108202;1254;69123;-67
2024/03/08 05:06:36;;;;;;;120.80;44.60;;;;;;;2.09;44.65;100710.23;108121;1253;72430;-67
2024/03/08 05:09:13;;;;;;;109.20;47.50;;;;;;;2.28;44.60;100712.08;108184;1253;61679;-66
2024/03/08 05:11:40;;;;;;;133.40;52.80;;;;;;;2.45;44.47;100711.31;108151;1253;60502;-64
2024/03/08 05:14:07;;;;;;;117.00;47.30;;;;;;;2.50;44.62;100708.22;108171;1253;73594;-66
2024/03/08 05:16:34;;;;;;;111.10;45.20;;;;;;;2.65;44.51;100707.42;108142;1254;70774;-66
2024/03/08 05:19:02;;;;;;;116.80;46.00;;;;;;;2.83;44.29;100707.84;108193;1253;72615;-64
2024/03/08 05:21:28;;;;;;;103.50;41.80;;;;;;;3.03;44.10;100709.30;108187;1253;60359;-67
2024/03/08 05:23:55;;;;;;;134.50;54.00;;;;;;;3.32;44.45;100709.02;108129;1253;60339;-68
2024/03/08 05:26:22;;;;;;;124.00;49.20;;;;;;;3.93;45.60;100708.52;108160;1256;73622;-64
2024/03/08 05:28:48;;;;;;;103.40;43.70;;;;;;;4.79;46.05;100699.63;108205;1253;69070;-67
2024/03/08 05:31:24;;;;;;;117.50;51.30;;;;;;;5.76;45.53;100696.07;108039;1254;72545;-67
2024/03/08 05:33:51;;;;;;;108.10;49.90;;;;;;;6.73;44.97;100694.24;108138;1253;61852;-66
2024/03/08 05:36:18;;;;;;;101.30;46.40;;;;;;;7.50;45.12;100694.41;108182;1254;60361;-66
2024/03/08 05:38:45;;;;;;;96.70;44.30;;;;;;;8.16;44.92;100688.42;108123;1253;73669;-67
2024/03/08 05:41:11;;;;;;;97.80;44.20;;;;;;;8.89;44.54;100686.31;108140;1254;70294;-67
2024/03/08 05:43:38;;;;;;;96.30;44.30;;;;;;;9.67;44.30;100684.89;108169;1254;71388;-67
2024/03/08 05:46:05;;;;;;;86.80;42.90;;;;;;;10.29;42.89;100682.77;108135;1253;60446;-67
2024/03/08 05:48:32;;;;;;;95.90;43.90;;;;;;;10.91;41.81;100681.23;108183;1253;60428;-66
2024/03/08 05:51:02;;;;;;;87.60;43.60;;;;;;;11.51;40.51;100682.40;108179;1253;73725;-67
2024/03/08 05:53:33;;;;;;;;;;;;;;;12.05;39.24;100678.86;108172;1253;71098;-68
2024/03/08 05:56:02;;;;;;;84.50;42.10;;;;;;;12.57;38.23;100676.68;108035;1254;72661;-67
2024/03/08 05:58:30;;;;;;;79.30;41.80;;;;;;;13.16;37.12;100676.06;108128;1253;60989;-68
2024/03/08 06:00:56;;;;;;;87.10;40.50;;;;;;;13.52;35.93;100674.30;108131;1253;60201;-67
2024/03/08 06:03:23;;;;;;;75.60;38.90;;;;;;;13.96;35.05;100670.70;108128;1253;74433;-66
2024/03/08 06:05:50;;;;;;;79.20;40.20;;;;;;;14.46;34.32;100673.33;108093;1254;70183;-68
2024/03/08 06:08:18;;;;;;;81.50;41.30;;;;;;;15.03;32.95;100671.81;108132;1254;74169;-67
2024/03/08 06:10:46;;;;;;;80.80;41.20;;;;;;;15.43;31.99;100672.55;108158;1252;60318;-67
2024/03/08 06:13:12;;;;;;;75.50;41.60;;;;;;;15.77;30.96;100668.95;108172;1252;60452;-68
2024/03/08 06:15:39;;;;;;;75.60;42.00;;;;;;;15.87;31.16;100672.36;108249;1254;73615;-68
2024/03/08 06:18:10;;;;;;;83.00;40.40;;;;;;;16.30;30.29;100664.67;108206;1254;70056;-68
2024/03/08 06:20:37;;;;;;;86.20;39.90;;;;;;;16.59;29.50;100665.79;108149;1253;72460;-67
2024/03/08 06:23:04;;;;;;;69.00;37.00;;;;;;;16.98;28.56;100664.60;108119;1256;60293;-68
2024/03/08 06:25:31;;;;;;;71.70;37.20;;;;;;;17.30;28.06;100662.66;108194;1253;60216;-67
2024/03/08 06:27:57;;;;;;;69.30;37.20;;;;;;;17.55;27.57;100664.42;108245;1253;73627;-65
2024/03/08 06:30:24;;;;;;;58.60;34.40;;;;;;;17.86;27.05;100660.52;108192;1256;70667;-68
2024/03/08 06:32:51;;;;;;;52.20;31.30;;;;;;;18.13;26.42;100656.59;108213;1254;72933;-67
2024/03/08 06:35:20;;;;;;;57.00;33.70;;;;;;;18.29;26.30;100653.88;108155;1253;60459;-66
2024/03/08 06:37:46;;;;;;;61.80;33.90;;;;;;;18.45;26.24;100656.10;108168;1253;60453;-67
2024/03/08 06:40:13;;;;;;;55.70;32.10;;;;;;;18.80;25.91;100654.10;108212;1256;73847;-67
2024/03/08 06:42:41;;;;;;;53.90;32.00;;;;;;;19.14;25.63;100658.35;108232;1253;70429;-67
2024/03/08 06:45:09;;;;;;;55.90;31.40;;;;;;;19.48;24.81;100659.02;108230;1253;72572;-67
2024/03/08 06:47:36;;;;;;;58.60;30.20;;;;;;;19.76;24.69;100656.09;108221;1253;60331;-67
2024/03/08 06:50:04;;;;;;;47.70;29.70;;;;;;;20.02;23.98;100649.71;108204;1253;60533;-68
2024/03/08 06:52:31;;;;;;;45.30;27.70;;;;;;;20.13;23.67;100647.92;108206;1254;74176;-66
2024/03/08 06:54:58;;;;;;;42.10;27.90;;;;;;;20.13;23.63;100644.02;108241;1254;70423;-68
2024/03/08 06:57:24;;;;;;;44.20;26.30;;;;;;;20.02;23.13;100644.19;108220;1252;72474;-67
2024/03/08 06:59:52;;;;;;;48.50;27.90;;;;;;;20.09;23.08;100642.85;108047;1258;61265;-68
2024/03/08 07:02:18;;;;;;;42.20;27.90;;;;;;;20.32;23.33;100639.98;108224;1252;60393;-69
2024/03/08 07:04:45;;;;;;;38.80;25.50;;;;;;;20.59;22.62;100634.91;108180;1253;75193;-67
2024/03/08 07:07:12;;;;;;;43.70;28.20;;;;;;;20.94;22.58;100632.39;108048;1254;70574;-68
2024/03/08 07:09:39;;;;;;;38.80;25.60;;;;;;;21.21;22.49;100634.77;108214;1252;72535;-67
2024/03/08 07:12:06;;;;;;;38.40;24.50;;;;;;;21.57;21.72;100628.34;108215;1253;60396;-68
2024/03/08 07:14:34;;;;;;;34.90;23.30;;;;;;;21.77;21.38;100631.35;108185;1253;60162;-67
2024/03/08 07:17:01;;;;;;;35.60;22.80;;;;;;;21.99;21.03;100628.19;108225;1253;73867;-68
2024/03/08 07:19:31;;;;;;;36.10;23.00;;;;;;;22.22;21.26;100625.54;108142;1253;70258;-68
2024/03/08 07:21:58;;;;;;;28.80;19.30;;;;;;;22.50;20.22;100621.91;108151;1252;71667;-66
2024/03/08 07:24:37;;;;;;;33.10;20.80;;;;;;;22.56;19.86;100621.07;108123;1254;60324;-69
2024/03/08 07:27:05;;;;;;;30.00;19.90;;;;;;;22.48;20.44;100621.77;108121;1254;61002;-67
2024/03/08 07:29:35;;;;;;;30.00;18.40;;;;;;;22.68;20.09;100624.44;108174;1253;73000;-67
2024/03/08 07:32:14;;;;;;;31.40;20.40;;;;;;;23.14;19.90;100619.88;108086;1256;70163;-70
2024/03/08 07:34:41;;;;;;;28.90;18.20;;;;;;;23.58;19.20;100619.57;108148;1256;73758;-68
2024/03/08 07:37:10;;;;;;;31.50;19.40;;;;;;;23.11;18.71;100624.90;108051;1252;62024;-68
2024/03/08 07:39:39;;;;;;;34.60;22.00;;;;;;;22.97;19.15;100624.45;108300;1254;60383;-68
2024/03/08 07:42:06;;;;;;;41.80;20.20;;;;;;;22.98;19.29;100620.95;108363;1253;72622;-68
2024/03/08 07:44:33;;;;;;;29.30;19.60;;;;;;;23.31;19.47;100618.63;108278;1253;70200;-69
2024/03/08 07:47:00;;;;;;;28.90;18.00;;;;;;;23.67;19.06;100617.92;108268;1253;72866;-68
2024/03/08 07:49:26;;;;;;;25.40;16.30;;;;;;;24.04;18.98;100612.16;108251;1253;60393;-68
2024/03/08 07:51:53;;;;;;;29.20;17.90;;;;;;;24.36;17.89;100609.75;108284;1252;60371;-68
2024/03/08 07:54:20;;;;;;;25.10;16.90;;;;;;;24.28;17.75;100608.11;108274;1252;75085;-66
2024/03/08 07:56:47;;;;;;;29.40;18.20;;;;;;;23.89;17.36;100611.59;108305;1252;70278;-67
2024/03/08 07:59:14;;;;;;;26.90;17.30;;;;;;;23.63;18.15;100609.73;108348;1252;73185;-69
2024/03/08 08:01:41;;;;;;;29.60;17.30;;;;;;;22.75;18.31;100607.38;108306;1254;60487;-68
2024/03/08 08:04:12;;;;;;;27.40;17.70;;;;;;;22.77;18.81;100607.80;108248;1253;60318;-67
2024/03/08 08:06:41;;;;;;;23.40;16.20;;;;;;;22.98;18.93;100609.70;108270;1253;72621;-68
2024/03/08 08:09:28;;;;;;;18.20;12.10;;;;;;;23.53;18.16;100606.44;108293;1254;69398;-67
2024/03/08 08:11:55;;;;;;;17.20;11.40;;;;;;;23.90;17.20;100600.41;108233;1254;74122;-69
2024/03/08 08:14:22;;;;;;;17.90;11.60;;;;;;;24.17;17.31;100596.84;108062;1254;60332;-68
2024/03/08 08:16:52;;;;;;;16.00;11.30;;;;;;;24.60;16.28;100596.67;108285;1253;60622;-68
2024/03/08 08:19:19;;;;;;;17.20;11.00;;;;;;;24.77;16.25;100587.66;108190;1253;72788;-68
2024/03/08 08:21:46;;;;;;;15.80;11.00;;;;;;;24.39;15.85;100593.15;108190;1253;69113;-68
2024/03/08 08:24:13;;;;;;;17.00;12.00;;;;;;;24.52;16.48;100586.06;108266;1256;71204;-68
2024/03/08 08:26:40;;;;;;;16.80;10.70;;;;;;;24.45;16.12;100585.79;108240;1252;60387;-68
2024/03/08 08:29:07;;;;;;;17.30;10.60;;;;;;;24.27;16.21;100581.45;108221;1256;60280;-67
2024/03/08 08:31:34;;;;;;;16.40;10.60;;;;;;;24.50;16.18;100581.27;108326;1253;72570;-69
2024/03/08 08:34:03;;;;;;;14.90;10.20;;;;;;;24.76;16.02;100579.15;108070;1253;70557;-68
2024/03/08 08:36:31;;;;;;;12.50;8.80;;;;;;;25.21;15.83;100579.38;108091;1253;72468;-68
2024/03/08 08:38:59;;;;;;;14.20;9.80;;;;;;;25.38;15.15;100578.96;108058;1253;61505;-68
2024/03/08 08:41:26;;;;;;;13.10;9.30;;;;;;;25.32;14.99;100577.80;108089;1253;60382;-69
2024/03/08 08:43:53;;;;;;;9.90;6.70;;;;;;;25.48;14.73;100579.07;108069;1253;73651;-69
2024/03/08 08:46:36;;;;;;;14.20;9.20;;;;;;;25.53;14.63;100578.25;108055;1253;70341;-69
2024/03/08 08:49:10;;;;;;;16.10;10.00;;;;;;;25.56;14.89;100576.89;108103;1253;72853;-68
2024/03/08 08:51:37;;;;;;;14.90;9.60;;;;;;;25.63;14.64;100571.94;108148;1253;60471;-68
2024/03/08 08:54:03;;;;;;;13.80;9.70;;;;;;;25.37;14.81;100571.23;108089;1253;60280;-69
2024/03/08 08:56:30;;;;;;;14.90;9.50;;;;;;;25.39;15.06;100576.34;108126;1253;73661;-69
2024/03/08 08:58:57;;;;;;;14.70;8.60;;;;;;;25.63;14.87;100568.84;108111;1253;70462;-69
2024/03/08 09:01:24;;;;;;;15.00;10.70;;;;;;;25.68;14.39;100567.27;108146;1257;72755;-68
2024/03/08 09:03:51;;;;;;;12.10;7.20;;;;;;;25.87;14.57;100563.63;108092;1253;60479;-67
2024/03/08 09:06:18;;;;;;;14.60;6.80;;;;;;;25.88;14.24;100558.98;108087;1253;60346;-68
2024/03/08 09:08:46;;;;;;;10.60;7.60;;;;;;;25.93;13.97;100558.88;108166;1253;73858;-68
2024/03/08 09:11:13;;;;;;;12.60;8.20;;;;;;;26.14;14.30;100552.56;108138;1253;70143;-68
2024/03/08 09:13:40;;;;;;;12.20;8.40;;;;;;;26.35;14.14;100553.97;108129;1256;72377;-70
2024/03/08 09:16:07;;;;;;;19.60;9.30;;;;;;;26.38;14.17;100553.00;108131;1253;61330;-66
2024/03/08 09:18:35;;;;;;;11.50;7.70;;;;;;;26.13;14.17;100549.99;108090;1253;60339;-68
2024/03/08 09:21:01;;;;;;;14.50;8.50;;;;;;;25.90;14.00;100547.48;108127;1253;73867;-68
2024/03/08 09:23:31;;;;;;;14.30;7.80;;;;;;;25.74;14.27;100544.30;108112;1253;70095;-67
2024/03/08 09:25:58;;;;;;;12.50;8.40;;;;;;;25.50;14.13;100545.60;108157;1253;71427;-68
2024/03/08 09:28:27;;;;;;;15.80;8.90;;;;;;;25.56;14.43;100547.60;108116;1253;59785;-69
2024/03/08 09:30:54;;;;;;;16.00;9.00;;;;;;;25.59;14.44;100539.79;108034;1252;60604;-69
2024/03/08 09:33:28;;;;;;;12.70;8.20;;;;;;;25.53;14.38;100535.98;108200;1253;72851;-67
2024/03/08 09:35:57;;;;;;;12.60;8.40;;;;;;;25.51;14.68;100537.23;108203;1253;70411;-68
2024/03/08 09:38:25;;;;;;;14.30;8.40;;;;;;;25.53;14.24;100534.27;108189;1254;73995;-68
2024/03/08 09:40:53;;;;;;;12.90;8.70;;;;;;;25.54;14.24;100531.92;108193;1254;60466;-67
2024/03/08 09:43:19;;;;;;;15.70;8.00;;;;;;;25.52;14.55;100527.44;108218;1256;60232;-68
2024/03/08 09:45:49;;;;;;;15.30;8.10;;;;;;;25.64;14.34;100522.38;108167;1254;73517;-68
2024/03/08 09:48:16;;;;;;;11.40;7.20;;;;;;;25.57;14.22;100525.73;108055;1254;70460;-68
2024/03/08 09:50:43;;;;;;;10.50;7.20;;;;;;;25.42;14.49;100532.54;108040;1253;71521;-67
2024/03/08 09:53:13;;;;;;;13.50;7.60;;;;;;;25.44;14.17;100525.00;107967;1255;60388;-70
2024/03/08 09:55:44;;;;;;;12.90;6.30;;;;;;;25.47;14.23;100527.27;107960;1254;60329;-68
2024/03/08 10:00:44;;;;;;;10.80;5.90;;;;;;;25.44;13.67;100516.66;107951;1254;70459;-68
2024/03/08 10:03:14;;;;;;;8.60;5.70;;;;;;;25.30;14.16;100520.36;107931;1254;71528;-69
2024/03/08 10:05:41;;;;;;;11.00;6.50;;;;;;;25.31;14.07;100516.80;108063;1254;60397;-68
2024/03/08 10:08:08;;;;;;;8.10;5.70;;;;;;;25.46;14.09;100515.33;107961;1254;60309;-68
2024/03/08 10:10:40;;;;;;;10.30;6.40;;;;;;;25.30;14.37;100518.05;108013;1254;73845;-66
2024/03/08 10:13:07;;;;;;;10.40;7.40;;;;;;;25.45;14.02;100510.00;107929;1256;69965;-70
2024/03/08 10:15:33;;;;;;;15.00;6.50;;;;;;;25.58;14.40;100509.33;107946;1255;71377;-67
2024/03/08 10:18:02;;;;;;;9.00;6.40;;;;;;;25.63;14.09;100510.02;107902;1254;59731;-68
2024/03/08 10:20:33;;;;;;;11.00;6.50;;;;;;;25.81;13.93;100507.02;107870;1255;202994;-67
2024/03/08 10:23:48;;;;;;;10.70;6.30;;;;;;;25.45;14.38;100504.27;105405;1286;600965;-68
2024/03/08 10:26:16;;;;;;;10.10;6.70;;;;;;;26.49;13.46;100502.36;107275;1263;59631;-67
2024/03/08 10:28:48;;;;;;;10.30;6.90;;;;;;;26.40;13.57;100500.52;107414;1263;59917;-66
2024/03/08 10:31:16;;;;;;;10.80;6.50;;;;;;;26.61;13.59;100501.77;107389;1263;74458;-68
2024/03/08 10:33:46;;;;;;;9.40;6.10;;;;;;;26.55;13.13;100499.86;107271;1263;70513;-69
2024/03/08 10:36:14;;;;;;;9.40;5.90;;;;;;;26.15;13.19;100496.17;107392;1268;73661;-69
2024/03/08 10:38:44;;;;;;;8.80;5.80;;;;;;;25.39;13.39;100495.59;107258;1263;60397;-68
2024/03/08 10:41:16;;;;;;;8.10;5.20;;;;;;;24.81;13.53;100498.36;107406;1266;59610;-70
2024/03/08 10:44:24;;;;;;;11.80;5.50;;;;;;;24.55;13.92;100496.30;107459;1263;71591;-70
2024/03/08 10:47:06;;;;;;;6.90;4.90;;;;;;;24.80;14.21;100489.37;107523;1263;69613;-68
2024/03/08 10:50:03;;;;;;;8.70;5.30;;;;;;;24.94;13.76;100485.36;107867;1262;71064;-68
2024/03/08 10:52:32;;;;;;;10.70;6.20;;;;;;;24.77;13.70;100482.45;107767;1256;60837;-69
2024/03/08 10:54:59;;;;;;;11.60;5.30;;;;;;;24.56;14.05;100481.88;107734;1256;61427;-68
2024/03/08 10:57:27;;;;;;;11.50;5.30;;;;;;;24.52;14.05;100483.42;107626;1256;75452;-68
2024/03/08 10:59:54;;;;;;;9.30;5.30;;;;;;;24.54;13.91;100482.89;107666;1256;72589;-69
2024/03/08 11:02:27;;;;;;;11.40;6.20;;;;;;;24.65;14.01;100473.50;107612;1257;74756;-69
2024/03/08 11:04:56;;;;;;;9.20;6.10;;;;;;;24.81;13.78;100469.49;107766;1257;60239;-69
2024/03/08 11:07:27;;;;;;;12.70;6.20;;;;;;;24.94;13.92;100464.23;107628;1257;60174;-68
2024/03/08 11:09:56;;;;;;;9.40;6.20;;;;;;;24.71;13.71;100453.92;107777;1256;73138;-67
2024/03/08 11:12:25;;;;;;;11.20;6.40;;;;;;;24.44;13.86;100455.61;107823;1256;72262;-69